Time;durP1;ratioP1;P1;durP2;ratioP2;P2;SDS_P1;SDS_P2;PMS_P1;PMS_P2;Temp;Humidity;BMP_temperature;BMP_pressure;BME280_temperature;BME280_humidity;BME280_pressure;Samples;Min_cycle;Max_cycle;Signal;HPM_P1;HPM_P2
2024/01/06 00:00:27;;;;;;;48.25;11.65;;;;;;;;;;5004098;28;20257;-51
2024/01/06 00:02:53;;;;;;;75.78;12.93;;;;;;;;;;5001339;28;20030;-53
2024/01/06 00:05:20;;;;;;;45.40;11.48;;;;;;;;;;5003369;28;20028;-52
2024/01/06 00:07:47;;;;;;;41.50;10.65;;;;;;;;;;5000338;28;20034;-58
2024/01/06 00:10:13;;;;;;;23.27;9.90;;;;;;;;;;5004110;28;20205;-56
2024/01/06 00:12:42;;;;;;;23.60;9.70;;;;;;;;;;5004915;28;20043;-54
2024/01/06 00:15:10;;;;;;;19.00;9.93;;;;;;;;;;4998839;28;20049;-52
2024/01/06 00:17:37;;;;;;;18.20;9.63;;;;;;;;;;5002038;28;20026;-53
2024/01/06 00:20:04;;;;;;;25.52;9.57;;;;;;;;;;5002725;28;20030;-56
2024/01/06 00:22:30;;;;;;;17.30;9.30;;;;;;;;;;5002907;28;20213;-51
2024/01/06 00:24:57;;;;;;;28.33;9.23;;;;;;;;;;5006581;28;20234;-49
2024/01/06 00:27:24;;;;;;;22.23;9.45;;;;;;;;;;5006820;28;20227;-54
2024/01/06 00:29:50;;;;;;;15.38;8.93;;;;;;;;;;5004483;28;20040;-50
2024/01/06 00:32:17;;;;;;;14.40;9.13;;;;;;;;;;4985926;28;20142;-56
2024/01/06 00:34:44;;;;;;;19.42;9.57;;;;;;;;;;5006474;28;20031;-55
2024/01/06 00:37:11;;;;;;;29.08;9.90;;;;;;;;;;5006478;28;20065;-52
2024/01/06 00:39:38;;;;;;;30.30;10.45;;;;;;;;;;5006546;28;20046;-49
2024/01/06 00:42:04;;;;;;;17.92;9.23;;;;;;;;;;5006680;28;20022;-52
2024/01/06 00:44:31;;;;;;;25.05;9.63;;;;;;;;;;4979234;28;20014;-52
2024/01/06 00:46:57;;;;;;;113.95;14.65;;;;;;;;;;4998781;28;20077;-52
2024/01/06 00:49:24;;;;;;;54.20;11.20;;;;;;;;;;4982993;28;20218;-54
2024/01/06 00:51:51;;;;;;;37.55;11.93;;;;;;;;;;5002470;28;20030;-52
2024/01/06 00:54:18;;;;;;;22.90;9.50;;;;;;;;;;4993623;28;20018;-51
2024/01/06 00:56:45;;;;;;;17.85;9.18;;;;;;;;;;4999205;28;20072;-54
2024/01/06 00:59:11;;;;;;;15.35;8.70;;;;;;;;;;4996103;28;20060;-52
2024/01/06 01:01:38;;;;;;;22.88;9.88;;;;;;;;;;4983684;28;20054;-56
2024/01/06 01:04:04;;;;;;;65.88;13.07;;;;;;;;;;5008048;28;20085;-57
2024/01/06 01:06:31;;;;;;;42.40;10.95;;;;;;;;;;5005782;28;20053;-55
2024/01/06 01:08:58;;;;;;;161.48;55.08;;;;;;;;;;4986946;28;20034;-54
2024/01/06 01:11:24;;;;;;;29.23;17.60;;;;;;;;;;5002849;28;20097;-53
2024/01/06 01:13:51;;;;;;;20.83;10.55;;;;;;;;;;5004089;28;20031;-57
2024/01/06 01:16:17;;;;;;;21.27;10.23;;;;;;;;;;4998254;28;20025;-55
2024/01/06 01:18:44;;;;;;;50.90;10.80;;;;;;;;;;5000826;28;20030;-56
2024/01/06 01:21:11;;;;;;;14.80;8.35;;;;;;;;;;5000074;28;20038;-53
2024/01/06 01:23:37;;;;;;;16.23;9.68;;;;;;;;;;5006952;28;20050;-53
2024/01/06 01:26:04;;;;;;;16.77;9.98;;;;;;;;;;5007546;28;20030;-57
2024/01/06 01:28:30;;;;;;;19.48;9.77;;;;;;;;;;5004194;28;20033;-56
2024/01/06 01:30:57;;;;;;;25.42;9.57;;;;;;;;;;4998888;28;20311;-52
2024/01/06 01:33:24;;;;;;;22.27;9.00;;;;;;;;;;5001648;28;20069;-54
2024/01/06 01:35:50;;;;;;;20.98;9.48;;;;;;;;;;4994749;28;20026;-56
2024/01/06 01:38:17;;;;;;;29.55;9.40;;;;;;;;;;5001520;28;20089;-54
2024/01/06 01:40:44;;;;;;;60.00;12.10;;;;;;;;;;4997862;28;20050;-52
2024/01/06 01:43:17;;;;;;;23.38;8.90;;;;;;;;;;5003882;28;20132;-53
2024/01/06 01:45:43;;;;;;;23.92;9.15;;;;;;;;;;4997274;28;20072;-52
2024/01/06 01:48:10;;;;;;;26.95;10.00;;;;;;;;;;5006902;28;20022;-48
2024/01/06 01:50:37;;;;;;;17.70;9.05;;;;;;;;;;4990778;28;20030;-51
2024/01/06 01:53:04;;;;;;;19.35;9.13;;;;;;;;;;4991695;28;20037;-54
2024/01/06 01:55:30;;;;;;;12.38;8.50;;;;;;;;;;5001122;28;20089;-46
2024/01/06 01:57:57;;;;;;;15.20;9.05;;;;;;;;;;5004937;28;20018;-54
2024/01/06 02:00:23;;;;;;;14.43;9.30;;;;;;;;;;5004025;28;20018;-52
2024/01/06 02:02:50;;;;;;;14.27;8.73;;;;;;;;;;5003452;28;20030;-52
2024/01/06 02:05:17;;;;;;;33.67;9.82;;;;;;;;;;5001897;28;20259;-46
2024/01/06 02:07:43;;;;;;;24.45;9.48;;;;;;;;;;5001584;28;20048;-53
2024/01/06 02:10:10;;;;;;;18.65;8.68;;;;;;;;;;4996425;28;20033;-54
2024/01/06 02:12:37;;;;;;;16.58;8.90;;;;;;;;;;5003986;28;20023;-50
2024/01/06 02:15:03;;;;;;;26.95;9.73;;;;;;;;;;5004699;28;20082;-51
2024/01/06 02:17:30;;;;;;;18.60;8.25;;;;;;;;;;5004390;28;20214;-53
2024/01/06 02:19:57;;;;;;;13.70;9.15;;;;;;;;;;5005628;28;20026;-53
2024/01/06 02:22:23;;;;;;;13.52;9.23;;;;;;;;;;5005758;28;20022;-52
2024/01/06 02:24:50;;;;;;;17.67;9.18;;;;;;;;;;5005677;28;20080;-52
2024/01/06 02:27:16;;;;;;;16.05;8.85;;;;;;;;;;5005895;28;20040;-52
2024/01/06 02:29:43;;;;;;;12.05;8.95;;;;;;;;;;5004794;28;20118;-53
2024/01/06 02:32:09;;;;;;;15.77;9.27;;;;;;;;;;5005738;28;20030;-54
2024/01/06 02:34:38;;;;;;;20.75;8.60;;;;;;;;;;5005492;28;20033;-55
2024/01/06 02:37:04;;;;;;;15.43;9.30;;;;;;;;;;5009633;28;20011;-51
2024/01/06 02:39:31;;;;;;;11.43;8.45;;;;;;;;;;4989528;28;20325;-57
2024/01/06 02:41:57;;;;;;;11.95;8.63;;;;;;;;;;4997252;28;20068;-50
2024/01/06 02:44:24;;;;;;;14.15;9.02;;;;;;;;;;4995945;28;20027;-52
2024/01/06 02:46:52;;;;;;;12.73;8.40;;;;;;;;;;4994380;28;20066;-53
2024/01/06 02:49:18;;;;;;;11.07;8.50;;;;;;;;;;4995052;28;20019;-60
2024/01/06 02:51:45;;;;;;;13.45;8.55;;;;;;;;;;4995985;28;20022;-48
2024/01/06 02:54:11;;;;;;;11.05;8.73;;;;;;;;;;4996333;28;20030;-56
2024/01/06 02:56:38;;;;;;;13.13;9.00;;;;;;;;;;5002147;28;20211;-53
2024/01/06 02:59:05;;;;;;;16.15;9.57;;;;;;;;;;5002388;28;20026;-55
2024/01/06 03:01:32;;;;;;;49.97;10.93;;;;;;;;;;4998695;28;20101;-50
2024/01/06 03:03:59;;;;;;;17.83;9.40;;;;;;;;;;4995478;28;20025;-51
2024/01/06 03:06:25;;;;;;;12.65;8.88;;;;;;;;;;5004654;28;20019;-54
2024/01/06 03:08:52;;;;;;;25.95;12.35;;;;;;;;;;5000725;28;20042;-57
2024/01/06 03:11:19;;;;;;;20.27;10.35;;;;;;;;;;4997755;28;20025;-54
2024/01/06 03:13:45;;;;;;;17.40;8.80;;;;;;;;;;5004284;28;20381;-52
2024/01/06 03:16:13;;;;;;;17.73;9.07;;;;;;;;;;5000708;28;20057;-52
2024/01/06 03:18:39;;;;;;;17.80;9.15;;;;;;;;;;4995193;28;20025;-51
2024/01/06 03:21:06;;;;;;;12.80;9.10;;;;;;;;;;4993687;28;20075;-53
2024/01/06 03:23:32;;;;;;;14.40;8.75;;;;;;;;;;5001105;28;20077;-52
2024/01/06 03:25:59;;;;;;;12.88;9.35;;;;;;;;;;5000275;28;20093;-48
2024/01/06 03:28:26;;;;;;;13.65;9.10;;;;;;;;;;5001776;28;20089;-57
2024/01/06 03:30:52;;;;;;;17.60;8.43;;;;;;;;;;5003820;28;20049;-53
2024/01/06 03:33:19;;;;;;;13.43;9.50;;;;;;;;;;5003694;28;20022;-57
2024/01/06 03:35:45;;;;;;;14.18;9.10;;;;;;;;;;4997738;28;20027;-55
2024/01/06 03:38:12;;;;;;;13.38;8.57;;;;;;;;;;5002498;28;20041;-56
2024/01/06 03:40:39;;;;;;;10.20;8.07;;;;;;;;;;5000644;28;20058;-54
2024/01/06 03:43:05;;;;;;;13.80;8.57;;;;;;;;;;5004890;28;20046;-52
2024/01/06 03:45:32;;;;;;;13.07;8.90;;;;;;;;;;5006673;28;20033;-53
2024/01/06 03:47:58;;;;;;;14.20;8.85;;;;;;;;;;5015643;28;20025;-57
2024/01/06 03:50:25;;;;;;;11.27;8.27;;;;;;;;;;5024258;28;20152;-55
2024/01/06 03:52:51;;;;;;;13.35;8.77;;;;;;;;;;5024035;28;20049;-55
2024/01/06 03:55:18;;;;;;;12.38;8.60;;;;;;;;;;5023477;28;20064;-52
2024/01/06 03:57:45;;;;;;;14.05;9.02;;;;;;;;;;5024183;28;20018;-52
2024/01/06 04:00:11;;;;;;;15.77;8.30;;;;;;;;;;5023811;28;20029;-56
2024/01/06 04:02:38;;;;;;;13.10;8.63;;;;;;;;;;5024179;28;20025;-54
2024/01/06 04:05:05;;;;;;;13.00;8.18;;;;;;;;;;5023974;28;20040;-53
2024/01/06 04:07:31;;;;;;;15.48;8.60;;;;;;;;;;5023864;28;20026;-53
2024/01/06 04:09:58;;;;;;;9.27;8.20;;;;;;;;;;5023661;28;20034;-52
2024/01/06 04:12:25;;;;;;;11.10;8.27;;;;;;;;;;5023953;28;20029;-52
2024/01/06 04:14:51;;;;;;;12.30;8.75;;;;;;;;;;5023661;28;20213;-54
2024/01/06 04:17:18;;;;;;;10.55;8.38;;;;;;;;;;5024114;28;20202;-53
2024/01/06 04:19:45;;;;;;;16.00;9.50;;;;;;;;;;5023776;28;20030;-53
2024/01/06 04:22:11;;;;;;;14.02;10.15;;;;;;;;;;5023621;28;20201;-56
2024/01/06 04:24:38;;;;;;;14.32;10.15;;;;;;;;;;5023356;28;20054;-56
2024/01/06 04:27:05;;;;;;;11.05;9.07;;;;;;;;;;5023793;28;20072;-55
2024/01/06 04:29:32;;;;;;;12.32;9.48;;;;;;;;;;5023743;28;20385;-52
2024/01/06 04:31:58;;;;;;;11.70;9.00;;;;;;;;;;5023496;28;20029;-52
2024/01/06 04:34:25;;;;;;;15.23;9.18;;;;;;;;;;5006166;28;20029;-54
2024/01/06 04:36:51;;;;;;;9.88;8.48;;;;;;;;;;5023618;28;20017;-55
2024/01/06 04:39:18;;;;;;;12.68;8.82;;;;;;;;;;5000683;28;20076;-58
2024/01/06 04:41:44;;;;;;;12.73;8.40;;;;;;;;;;4984763;28;20028;-54
2024/01/06 04:44:11;;;;;;;11.32;7.80;;;;;;;;;;4984549;28;20042;-50
2024/01/06 04:46:38;;;;;;;9.55;8.23;;;;;;;;;;4984341;28;20033;-54
2024/01/06 04:49:04;;;;;;;15.48;8.57;;;;;;;;;;4984467;28;20023;-51
2024/01/06 04:51:31;;;;;;;20.55;8.57;;;;;;;;;;4984427;28;20061;-57
2024/01/06 04:53:58;;;;;;;13.07;8.70;;;;;;;;;;4984274;28;20022;-54
2024/01/06 04:56:24;;;;;;;10.43;8.20;;;;;;;;;;4984375;28;20015;-56
2024/01/06 04:58:51;;;;;;;13.65;8.10;;;;;;;;;;4984363;28;20315;-56
2024/01/06 05:01:17;;;;;;;11.35;8.50;;;;;;;;;;4984116;28;20263;-52
2024/01/06 05:03:44;;;;;;;12.45;7.55;;;;;;;;;;4984705;28;20082;-54
2024/01/06 05:06:10;;;;;;;10.95;7.93;;;;;;;;;;4984304;28;20030;-55
2024/01/06 05:08:41;;;;;;;13.20;8.68;;;;;;;;;;4986401;28;20067;-54
2024/01/06 05:11:08;;;;;;;12.15;7.90;;;;;;;;;;4993532;28;20037;-54
2024/01/06 05:13:34;;;;;;;17.00;8.30;;;;;;;;;;5000188;28;20085;-52
2024/01/06 05:16:01;;;;;;;13.90;8.55;;;;;;;;;;4997839;28;20022;-56
2024/01/06 05:18:27;;;;;;;13.93;7.97;;;;;;;;;;4987743;28;20023;-51
2024/01/06 05:20:54;;;;;;;11.27;8.00;;;;;;;;;;4987574;28;20026;-53
2024/01/06 05:23:21;;;;;;;15.48;8.30;;;;;;;;;;4987552;28;20225;-54
2024/01/06 11:28:55;;;;;;;17.48;8.20;;;;;;;;;;5142291;27;20469;-60
2024/01/06 11:31:21;;;;;;;18.20;8.40;;;;;;;;;;5142206;28;20099;-57
2024/01/06 11:33:51;;;;;;;17.98;8.73;;;;;;;;;;5142245;28;20023;-55
2024/01/06 11:36:20;;;;;;;17.10;8.75;;;;;;;;;;5141978;28;20027;-55
2024/01/06 11:38:50;;;;;;;15.07;9.00;;;;;;;;;;5123759;28;20019;-55
2024/01/06 11:41:40;;;;;;;17.58;9.65;;;;;;;;;;5123745;28;20019;-54
2024/01/06 11:44:06;;;;;;;14.10;9.50;;;;;;;;;;5131639;28;20039;-54
2024/01/06 11:46:33;;;;;;;15.68;8.93;;;;;;;;;;5142113;28;20404;-54
2024/01/06 11:49:00;;;;;;;17.17;9.63;;;;;;;;;;5131394;27;20024;-54
2024/01/06 11:51:27;;;;;;;17.17;9.60;;;;;;;;;;5139698;28;20037;-57
2024/01/06 11:53:54;;;;;;;16.00;9.35;;;;;;;;;;5141961;28;20026;-56
2024/01/06 11:56:22;;;;;;;16.77;9.15;;;;;;;;;;5141668;28;20032;-54
2024/01/06 11:58:49;;;;;;;20.60;9.88;;;;;;;;;;5141862;28;20307;-57
2024/01/06 12:01:15;;;;;;;18.58;9.48;;;;;;;;;;5137616;28;20076;-58
2024/01/06 12:03:42;;;;;;;19.75;9.48;;;;;;;;;;5129611;28;20266;-53
2024/01/06 12:06:08;;;;;;;17.02;9.05;;;;;;;;;;5141544;28;20083;-59
2024/01/06 12:08:35;;;;;;;12.10;8.48;;;;;;;;;;5141611;28;20019;-59
2024/01/06 12:11:08;;;;;;;40.05;10.25;;;;;;;;;;5141290;28;20023;-58
2024/01/06 12:13:34;;;;;;;38.97;11.00;;;;;;;;;;5140235;27;20315;-58
2024/01/06 12:16:01;;;;;;;41.25;11.57;;;;;;;;;;5140946;28;20184;-54
2024/01/06 12:18:27;;;;;;;27.63;10.05;;;;;;;;;;5127485;28;20015;-54
2024/01/06 12:20:54;;;;;;;24.13;10.10;;;;;;;;;;5127456;28;20065;-61
2024/01/06 12:23:27;;;;;;;21.33;10.60;;;;;;;;;;5128720;27;20079;-55
2024/01/06 12:25:54;;;;;;;20.42;9.82;;;;;;;;;;5131671;28;20330;-54
2024/01/06 12:28:21;;;;;;;14.77;9.38;;;;;;;;;;5115082;28;20047;-56
2024/01/06 12:30:48;;;;;;;17.20;9.60;;;;;;;;;;5116990;28;20051;-56
2024/01/06 12:33:15;;;;;;;18.38;9.45;;;;;;;;;;5117298;27;20043;-57
2024/01/06 12:35:42;;;;;;;16.60;8.93;;;;;;;;;;5126288;28;20022;-55
2024/01/06 12:38:11;;;;;;;20.60;9.82;;;;;;;;;;5127747;28;20043;-55
2024/01/06 12:40:38;;;;;;;14.90;8.80;;;;;;;;;;5117226;28;20138;-53
2024/01/06 12:43:06;;;;;;;20.90;9.52;;;;;;;;;;5107252;28;20028;-55
2024/01/06 12:45:33;;;;;;;15.35;8.90;;;;;;;;;;5108779;27;20039;-61
2024/01/06 12:48:00;;;;;;;13.25;8.20;;;;;;;;;;5108249;27;20035;-55
2024/01/06 12:50:26;;;;;;;16.88;8.70;;;;;;;;;;5113279;27;20039;-54
2024/01/06 12:52:53;;;;;;;20.88;9.25;;;;;;;;;;5127395;28;20031;-57
2024/01/06 12:55:19;;;;;;;17.08;8.80;;;;;;;;;;5119729;28;20181;-55
2024/01/06 12:57:46;;;;;;;21.77;9.48;;;;;;;;;;5106788;28;20316;-54
2024/01/06 13:00:13;;;;;;;28.23;9.00;;;;;;;;;;5115319;27;20032;-54
2024/01/06 13:02:39;;;;;;;15.55;8.48;;;;;;;;;;5107665;27;20053;-57
2024/01/06 13:05:06;;;;;;;18.30;8.60;;;;;;;;;;5112797;28;20038;-53
2024/01/06 13:07:33;;;;;;;16.92;8.85;;;;;;;;;;5106639;28;20303;-56
2024/01/06 13:09:59;;;;;;;15.50;8.55;;;;;;;;;;5118041;28;20035;-60
2024/01/06 13:12:28;;;;;;;14.70;8.48;;;;;;;;;;5108532;27;20050;-56
2024/01/06 13:14:55;;;;;;;18.95;8.73;;;;;;;;;;5111685;28;20020;-58
2024/01/06 13:17:22;;;;;;;13.38;8.10;;;;;;;;;;5120367;28;20027;-58
2024/01/06 13:19:49;;;;;;;13.05;8.50;;;;;;;;;;5123695;27;20023;-60
2024/01/06 13:22:18;;;;;;;12.43;8.30;;;;;;;;;;5116807;28;20038;-58
2024/01/06 13:24:44;;;;;;;18.50;9.10;;;;;;;;;;5105732;28;20038;-57
2024/01/06 13:27:11;;;;;;;18.35;8.30;;;;;;;;;;5105647;28;20047;-58
2024/01/06 13:29:38;;;;;;;13.88;8.23;;;;;;;;;;5105710;28;20020;-57
2024/01/06 13:32:05;;;;;;;14.18;8.63;;;;;;;;;;5105843;28;20322;-59
2024/01/06 13:34:32;;;;;;;15.63;8.82;;;;;;;;;;5116916;28;20023;-57
2024/01/06 13:36:58;;;;;;;19.25;9.80;;;;;;;;;;5126359;28;20068;-57
2024/01/06 13:39:25;;;;;;;20.45;9.20;;;;;;;;;;5125426;28;20023;-58
2024/01/06 13:41:52;;;;;;;17.33;8.43;;;;;;;;;;5125613;28;20060;-58
2024/01/06 13:44:18;;;;;;;12.45;8.20;;;;;;;;;;5125901;28;20016;-57
2024/01/06 13:46:45;;;;;;;13.63;8.63;;;;;;;;;;5125720;28;20032;-58
2024/01/06 13:49:12;;;;;;;13.13;8.52;;;;;;;;;;5125771;28;20078;-56
2024/01/06 13:51:40;;;;;;;13.98;8.50;;;;;;;;;;5125848;28;20278;-55
2024/01/06 13:54:06;;;;;;;14.68;8.57;;;;;;;;;;5125632;28;20319;-58
2024/01/06 13:56:33;;;;;;;11.75;9.13;;;;;;;;;;5125601;28;20098;-59
2024/01/06 13:58:59;;;;;;;10.00;8.73;;;;;;;;;;5125675;28;20079;-58
2024/01/06 14:01:26;;;;;;;11.70;8.68;;;;;;;;;;5125601;28;20094;-54
2024/01/06 14:03:59;;;;;;;12.32;9.00;;;;;;;;;;5125551;28;20079;-56
2024/01/06 14:06:29;;;;;;;13.23;8.75;;;;;;;;;;5125579;28;20031;-56
2024/01/06 14:08:59;;;;;;;15.57;9.63;;;;;;;;;;5124793;28;20027;-57
2024/01/06 14:11:30;;;;;;;13.63;10.02;;;;;;;;;;5110174;28;20020;-55
2024/01/06 14:13:58;;;;;;;13.40;9.55;;;;;;;;;;5104946;28;20016;-56
2024/01/06 14:16:24;;;;;;;14.20;9.30;;;;;;;;;;5106019;28;20035;-56
2024/01/06 14:18:51;;;;;;;14.98;9.70;;;;;;;;;;5120744;28;20020;-55
2024/01/06 14:21:19;;;;;;;14.48;10.20;;;;;;;;;;5123753;28;20356;-57
2024/01/06 14:23:49;;;;;;;19.25;11.10;;;;;;;;;;5125155;28;20341;-60
2024/01/06 14:26:17;;;;;;;17.33;10.65;;;;;;;;;;5125027;28;20055;-58
2024/01/06 14:28:43;;;;;;;17.27;11.30;;;;;;;;;;5109993;28;20227;-57
2024/01/06 14:31:10;;;;;;;16.17;10.95;;;;;;;;;;5105710;28;20024;-58
2024/01/06 14:33:37;;;;;;;17.67;11.80;;;;;;;;;;5104591;28;20083;-57
2024/01/06 14:36:04;;;;;;;19.42;11.57;;;;;;;;;;5120933;28;20043;-58
2024/01/06 14:38:31;;;;;;;14.50;11.32;;;;;;;;;;5124817;28;20022;-56
2024/01/06 14:40:57;;;;;;;17.00;11.13;;;;;;;;;;5123317;28;20196;-57
2024/01/06 14:43:25;;;;;;;16.55;11.32;;;;;;;;;;5105887;28;20272;-55
2024/01/06 14:45:51;;;;;;;19.20;12.32;;;;;;;;;;5104209;28;20311;-55
2024/01/06 14:48:18;;;;;;;14.77;11.60;;;;;;;;;;5112087;27;20089;-57
2024/01/06 14:50:44;;;;;;;17.13;11.98;;;;;;;;;;5113848;28;20011;-60
2024/01/06 14:53:11;;;;;;;18.23;11.70;;;;;;;;;;5111712;28;20130;-59
2024/01/06 14:55:38;;;;;;;18.05;11.43;;;;;;;;;;5114442;28;20020;-67
2024/01/06 14:58:04;;;;;;;17.58;11.57;;;;;;;;;;5113309;28;20020;-62
2024/01/06 15:00:31;;;;;;;19.80;11.95;;;;;;;;;;5112314;28;20035;-61
2024/01/06 15:02:58;;;;;;;17.73;11.48;;;;;;;;;;5112784;28;20020;-59
2024/01/06 15:05:28;;;;;;;18.38;12.30;;;;;;;;;;5109832;28;20020;-55
2024/01/06 15:07:55;;;;;;;18.33;11.90;;;;;;;;;;5110448;28;20238;-57
2024/01/06 15:10:22;;;;;;;21.15;12.20;;;;;;;;;;5109034;28;20024;-54
2024/01/06 15:12:48;;;;;;;17.55;13.25;;;;;;;;;;5112574;28;20083;-55
2024/01/06 15:15:15;;;;;;;22.23;12.10;;;;;;;;;;5111459;28;20180;-54
2024/01/06 15:17:42;;;;;;;21.33;12.18;;;;;;;;;;5102683;28;20032;-56
2024/01/06 15:20:09;;;;;;;22.92;11.68;;;;;;;;;;5103722;28;20019;-56
2024/01/06 15:22:36;;;;;;;19.85;12.77;;;;;;;;;;5114118;28;20020;-60
2024/01/06 15:25:05;;;;;;;25.08;13.85;;;;;;;;;;5105470;28;20032;-58
2024/01/06 15:27:33;;;;;;;18.92;12.85;;;;;;;;;;5105338;28;20111;-57
2024/01/06 15:30:06;;;;;;;27.92;13.25;;;;;;;;;;5102751;28;20045;-58
2024/01/06 15:32:33;;;;;;;27.05;13.80;;;;;;;;;;5111346;28;20024;-58
2024/01/06 15:35:00;;;;;;;23.27;12.70;;;;;;;;;;5109549;28;20028;-56
2024/01/06 15:37:26;;;;;;;28.63;12.88;;;;;;;;;;5112745;28;20035;-56
2024/01/06 15:39:53;;;;;;;22.83;13.00;;;;;;;;;;5107813;28;20027;-56
2024/01/06 15:42:20;;;;;;;21.48;12.77;;;;;;;;;;5110008;28;20024;-56
2024/01/06 15:44:46;;;;;;;21.95;13.07;;;;;;;;;;5110542;28;20022;-58
2024/01/06 15:47:13;;;;;;;23.08;13.48;;;;;;;;;;5114615;28;20039;-55
2024/01/06 15:49:39;;;;;;;22.20;13.00;;;;;;;;;;5114494;28;20136;-59
2024/01/06 15:52:09;;;;;;;18.08;13.00;;;;;;;;;;5111959;28;20073;-56
2024/01/06 15:54:35;;;;;;;17.98;12.73;;;;;;;;;;5111302;28;20024;-59
2024/01/06 15:57:02;;;;;;;19.05;13.13;;;;;;;;;;5110665;28;20113;-59
2024/01/06 15:59:28;;;;;;;104.43;20.17;;;;;;;;;;5112948;28;20012;-53
2024/01/06 16:01:55;;;;;;;33.08;14.77;;;;;;;;;;5114490;28;20050;-54
2024/01/06 16:04:22;;;;;;;39.15;15.73;;;;;;;;;;5114948;28;20079;-60
2024/01/06 16:06:52;;;;;;;31.08;15.32;;;;;;;;;;5116883;28;20034;-57
2024/01/06 16:09:21;;;;;;;28.65;14.77;;;;;;;;;;5118164;28;20012;-57
2024/01/06 16:11:47;;;;;;;21.02;13.95;;;;;;;;;;5116496;28;20028;-60
2024/01/06 16:14:14;;;;;;;24.35;14.20;;;;;;;;;;5112686;28;20345;-54
2024/01/06 16:16:41;;;;;;;21.40;12.82;;;;;;;;;;5117297;28;20028;-60
2024/01/06 16:19:08;;;;;;;21.42;13.40;;;;;;;;;;5115930;28;20079;-57
2024/01/06 16:21:35;;;;;;;23.85;13.85;;;;;;;;;;5117324;28;20064;-63
2024/01/06 16:24:02;;;;;;;18.58;13.05;;;;;;;;;;5112380;28;20019;-66
2024/01/06 16:26:29;;;;;;;23.08;14.32;;;;;;;;;;5116555;28;20071;-59
2024/01/06 16:28:56;;;;;;;18.88;13.57;;;;;;;;;;5117362;28;20323;-61
2024/01/06 16:31:23;;;;;;;21.92;13.80;;;;;;;;;;5117027;28;20095;-61
2024/01/06 16:33:50;;;;;;;19.45;13.40;;;;;;;;;;5115556;28;20023;-60
2024/01/06 16:36:16;;;;;;;19.77;12.88;;;;;;;;;;5115780;28;20035;-63
2024/01/06 16:38:43;;;;;;;15.63;12.20;;;;;;;;;;5115345;28;20011;-55
2024/01/06 16:41:09;;;;;;;17.88;12.60;;;;;;;;;;5116205;28;20015;-55
2024/01/06 16:43:38;;;;;;;17.42;12.18;;;;;;;;;;5110516;28;20016;-56
2024/01/06 16:46:06;;;;;;;26.30;13.88;;;;;;;;;;5116636;28;20212;-56
2024/01/06 16:48:33;;;;;;;19.83;14.07;;;;;;;;;;5115141;28;20028;-55
2024/01/06 16:50:59;;;;;;;19.00;13.10;;;;;;;;;;5115250;28;20026;-55
2024/01/06 16:53:26;;;;;;;20.55;13.55;;;;;;;;;;5106728;28;20102;-55
2024/01/06 16:55:53;;;;;;;13.85;12.15;;;;;;;;;;5115740;28;20031;-55
2024/01/06 16:58:19;;;;;;;17.15;12.00;;;;;;;;;;5116575;28;20027;-59
2024/01/06 17:00:46;;;;;;;15.75;12.77;;;;;;;;;;5119098;28;20061;-55
2024/01/06 17:03:12;;;;;;;12.63;11.05;;;;;;;;;;5113570;28;20303;-56
2024/01/06 17:05:39;;;;;;;20.52;13.30;;;;;;;;;;5114771;28;20027;-56
2024/01/06 17:08:06;;;;;;;17.75;12.68;;;;;;;;;;5124692;28;20027;-56
2024/01/06 17:10:32;;;;;;;16.98;12.32;;;;;;;;;;5111339;28;20020;-58
2024/01/06 17:12:59;;;;;;;23.75;13.02;;;;;;;;;;5114011;28;20011;-58
2024/01/06 17:15:28;;;;;;;24.17;12.93;;;;;;;;;;5119100;28;20026;-60
2024/01/06 17:17:55;;;;;;;34.40;13.60;;;;;;;;;;5114727;27;20031;-58
2024/01/06 17:20:22;;;;;;;22.73;12.18;;;;;;;;;;5105749;28;20257;-60
2024/01/06 17:22:49;;;;;;;25.70;13.40;;;;;;;;;;5106296;28;20087;-61
2024/01/06 17:25:16;;;;;;;18.17;12.10;;;;;;;;;;5105810;28;20039;-59
2024/01/06 17:27:45;;;;;;;25.88;12.75;;;;;;;;;;5105446;28;20291;-59
2024/01/06 17:30:12;;;;;;;18.45;12.60;;;;;;;;;;5105681;28;20043;-59
2024/01/06 17:32:39;;;;;;;20.88;12.30;;;;;;;;;;5105650;28;20035;-58
2024/01/06 17:35:07;;;;;;;19.77;12.70;;;;;;;;;;5104728;28;20011;-59
2024/01/06 17:37:34;;;;;;;21.95;12.05;;;;;;;;;;5104214;28;20020;-61
2024/01/06 17:40:00;;;;;;;18.95;12.02;;;;;;;;;;5103524;28;20024;-61
2024/01/06 17:42:27;;;;;;;16.45;11.80;;;;;;;;;;5104071;28;20023;-60
2024/01/06 17:44:53;;;;;;;15.02;11.50;;;;;;;;;;5104333;28;20372;-60
2024/01/06 17:47:20;;;;;;;18.23;11.88;;;;;;;;;;5104539;28;20032;-58
2024/01/06 17:49:47;;;;;;;15.02;11.25;;;;;;;;;;5104169;28;20023;-60
2024/01/06 17:52:13;;;;;;;14.20;11.77;;;;;;;;;;5105555;28;20051;-61
2024/01/06 17:54:40;;;;;;;15.02;11.38;;;;;;;;;;5105312;28;20024;-61
2024/01/06 17:57:06;;;;;;;17.20;11.38;;;;;;;;;;5105479;28;20109;-61
2024/01/06 17:59:33;;;;;;;14.65;10.93;;;;;;;;;;5105402;28;20036;-60
2024/01/06 18:02:00;;;;;;;13.07;11.07;;;;;;;;;;5103597;28;20099;-60
2024/01/06 18:04:27;;;;;;;13.80;11.88;;;;;;;;;;5105072;28;20051;-60
2024/01/06 18:06:53;;;;;;;13.93;11.40;;;;;;;;;;5105188;28;20060;-59
2024/01/06 18:09:20;;;;;;;14.88;11.18;;;;;;;;;;5105035;28;20031;-59
2024/01/06 18:11:47;;;;;;;15.65;11.35;;;;;;;;;;5105022;28;20314;-57
2024/01/06 18:14:15;;;;;;;14.43;11.35;;;;;;;;;;5104807;28;20028;-59
2024/01/06 18:16:41;;;;;;;15.25;11.13;;;;;;;;;;5104967;28;20026;-59
2024/01/06 18:19:08;;;;;;;13.32;10.80;;;;;;;;;;5104764;28;20077;-59
2024/01/06 18:21:35;;;;;;;16.15;11.55;;;;;;;;;;5104757;28;20282;-59
2024/01/06 18:24:01;;;;;;;17.83;11.27;;;;;;;;;;5104759;28;20133;-60
2024/01/06 18:26:28;;;;;;;14.90;11.15;;;;;;;;;;5104092;28;20235;-60
2024/01/06 18:28:54;;;;;;;15.93;11.00;;;;;;;;;;5104558;28;20028;-60
2024/01/06 18:31:25;;;;;;;16.02;10.88;;;;;;;;;;5104589;28;20016;-60
2024/01/06 18:33:51;;;;;;;20.45;12.43;;;;;;;;;;5104600;28;20016;-61
2024/01/06 18:36:18;;;;;;;14.88;12.40;;;;;;;;;;5104424;28;20027;-59
2024/01/06 18:38:45;;;;;;;18.70;13.95;;;;;;;;;;5104516;28;20069;-59
2024/01/06 18:41:11;;;;;;;18.00;12.95;;;;;;;;;;5104246;28;20020;-58
2024/01/06 18:43:39;;;;;;;18.90;15.18;;;;;;;;;;5104215;28;20307;-59
2024/01/06 18:46:06;;;;;;;15.70;13.32;;;;;;;;;;5104480;28;20012;-61
2024/01/06 18:48:33;;;;;;;17.23;13.27;;;;;;;;;;5104320;28;20027;-60
2024/01/06 18:50:59;;;;;;;17.17;13.93;;;;;;;;;;5104074;28;20020;-61
2024/01/06 18:53:27;;;;;;;17.73;13.23;;;;;;;;;;5104245;28;20079;-60
2024/01/06 18:55:54;;;;;;;16.48;13.25;;;;;;;;;;5104152;28;20072;-60
2024/01/06 18:58:21;;;;;;;17.38;13.80;;;;;;;;;;5104063;28;20046;-60
2024/01/06 19:00:47;;;;;;;17.80;13.60;;;;;;;;;;5104096;28;20019;-59
2024/01/06 19:03:14;;;;;;;17.88;13.35;;;;;;;;;;5104623;28;20235;-60
2024/01/06 19:05:41;;;;;;;20.20;13.10;;;;;;;;;;5103909;28;20020;-59
2024/01/06 19:08:07;;;;;;;15.48;12.68;;;;;;;;;;5104410;28;20028;-60
2024/01/06 19:10:34;;;;;;;16.98;12.70;;;;;;;;;;5104043;28;20073;-59
2024/01/06 19:13:00;;;;;;;17.45;13.02;;;;;;;;;;5104268;28;20016;-59
2024/01/06 19:15:27;;;;;;;13.52;11.85;;;;;;;;;;5104059;28;20364;-60
2024/01/06 19:17:54;;;;;;;16.33;11.77;;;;;;;;;;5102869;28;20039;-59
2024/01/06 19:20:23;;;;;;;16.10;11.60;;;;;;;;;;5103798;28;20020;-59
2024/01/06 19:22:49;;;;;;;12.73;11.27;;;;;;;;;;5104373;28;20292;-60
2024/01/06 19:25:17;;;;;;;14.38;11.13;;;;;;;;;;5103864;28;20331;-60
2024/01/06 19:27:44;;;;;;;18.60;11.48;;;;;;;;;;5102467;28;20074;-59
2024/01/06 19:30:12;;;;;;;14.52;10.73;;;;;;;;;;5103929;28;20024;-59
2024/01/06 19:32:39;;;;;;;15.68;11.70;;;;;;;;;;5104304;28;20229;-58
2024/01/06 19:35:07;;;;;;;15.05;11.15;;;;;;;;;;5103630;28;20088;-58
2024/01/06 19:37:34;;;;;;;16.02;12.10;;;;;;;;;;5104197;28;20024;-61
2024/01/06 19:40:01;;;;;;;16.27;10.80;;;;;;;;;;5107408;28;20069;-61
2024/01/06 19:42:27;;;;;;;14.07;11.40;;;;;;;;;;5108026;28;20031;-59
2024/01/06 19:44:55;;;;;;;12.98;10.40;;;;;;;;;;5107732;28;20091;-60
2024/01/06 19:47:21;;;;;;;15.48;11.25;;;;;;;;;;5107839;28;20039;-60
2024/01/06 19:49:48;;;;;;;15.93;11.00;;;;;;;;;;5107494;28;20189;-59
2024/01/06 19:52:14;;;;;;;12.00;10.73;;;;;;;;;;5107788;28;20020;-60
2024/01/06 19:54:41;;;;;;;14.70;11.13;;;;;;;;;;5107623;28;20016;-60
2024/01/06 19:57:10;;;;;;;13.27;10.52;;;;;;;;;;5106299;28;20212;-58
2024/01/06 19:59:36;;;;;;;13.77;11.82;;;;;;;;;;5107534;28;20016;-60
2024/01/06 20:02:03;;;;;;;16.38;12.27;;;;;;;;;;5107583;28;20035;-59
2024/01/06 20:04:30;;;;;;;15.15;11.43;;;;;;;;;;5107292;28;20034;-60
2024/01/06 20:06:57;;;;;;;15.38;11.73;;;;;;;;;;5107549;28;20053;-59
2024/01/06 20:09:23;;;;;;;14.07;11.18;;;;;;;;;;5107388;28;20031;-60
2024/01/06 20:11:50;;;;;;;19.23;12.60;;;;;;;;;;5107376;28;20035;-61
2024/01/06 20:14:16;;;;;;;18.25;12.05;;;;;;;;;;5107449;28;20020;-60
2024/01/06 20:16:43;;;;;;;14.82;10.77;;;;;;;;;;5107290;28;20032;-62
2024/01/06 20:19:10;;;;;;;13.77;10.50;;;;;;;;;;5107040;28;20276;-60
2024/01/06 20:21:36;;;;;;;16.17;10.95;;;;;;;;;;5107123;28;20212;-60
2024/01/06 20:24:04;;;;;;;15.32;10.63;;;;;;;;;;5107083;28;20055;-61